Time;durP1;ratioP1;P1;durP2;ratioP2;P2;SDS_P1;SDS_P2;PMS_P1;PMS_P2;Temp;Humidity;BMP_temperature;BMP_pressure;BME280_temperature;BME280_humidity;BME280_pressure;Samples;Min_cycle;Max_cycle;Signal;HPM_P1;HPM_P2
2021/11/02 00:01:27;;;;;;;3.00;2.23;;;9.50;63.20;;;;;;5052791;28;20483;-91
2021/11/02 00:03:53;;;;;;;2.73;1.87;;;9.50;63.30;;;;;;5053242;28;20169;-91
2021/11/02 00:06:19;;;;;;;2.33;2.00;;;9.50;63.60;;;;;;5052995;28;20423;-91
2021/11/02 00:08:45;;;;;;;2.53;1.90;;;9.50;64.10;;;;;;5052752;28;20443;-92
2021/11/02 00:11:11;;;;;;;2.50;1.60;;;9.50;64.50;;;;;;5053075;28;20419;-91
2021/11/02 00:13:42;;;;;;;1.90;1.80;;;9.50;64.70;;;;;;5037479;28;20180;-92
2021/11/02 00:16:10;;;;;;;2.23;2.03;;;9.50;63.60;;;;;;5052708;28;20267;-92
2021/11/02 00:18:40;;;;;;;2.73;1.73;;;9.50;63.30;;;;;;5052328;28;20443;-93
2021/11/02 00:21:07;;;;;;;2.30;1.70;;;9.60;63.70;;;;;;5052493;28;20439;-93
2021/11/02 00:23:37;;;;;;;1.77;1.67;;;9.60;62.80;;;;;;5052769;28;20546;-91
2021/11/02 00:26:04;;;;;;;1.97;1.87;;;9.60;62.90;;;;;;5052501;28;20411;-92
2021/11/02 00:28:30;;;;;;;1.70;1.60;;;9.70;61.30;;;;;;5052523;28;20441;-91
2021/11/02 00:30:59;;;;;;;3.20;1.70;;;9.70;61.80;;;;;;5052197;28;20502;-90
2021/11/02 00:33:25;;;;;;;2.03;1.90;;;9.70;62.00;;;;;;5051794;28;20173;-91
2021/11/02 00:35:51;;;;;;;3.53;2.40;;;9.70;61.80;;;;;;5052703;28;20430;-91
2021/11/02 00:38:17;;;;;;;1.80;1.70;;;9.70;61.20;;;;;;5052452;28;20180;-91
2021/11/02 00:40:44;;;;;;;2.60;1.80;;;9.70;60.90;;;;;;5052981;28;20441;-91
2021/11/02 00:43:10;;;;;;;2.87;2.30;;;9.80;61.50;;;;;;5052786;28;20459;-91
2021/11/02 00:45:36;;;;;;;1.90;1.40;;;9.80;61.80;;;;;;5052660;28;20510;-91
2021/11/02 00:48:08;;;;;;;2.50;1.83;;;9.80;61.90;;;;;;5036074;28;20419;-90
2021/11/02 00:50:36;;;;;;;3.60;1.90;;;9.80;62.40;;;;;;5054082;28;20412;-91
2021/11/02 00:53:03;;;;;;;1.77;1.67;;;9.90;61.90;;;;;;5053098;28;20439;-92
2021/11/02 00:55:30;;;;;;;4.33;1.73;;;9.90;61.90;;;;;;5053323;28;20514;-90
2021/11/02 00:57:56;;;;;;;2.90;2.10;;;9.90;61.80;;;;;;5052847;28;20423;-91
2021/11/02 01:00:24;;;;;;;1.70;1.60;;;9.90;61.40;;;;;;5051750;28;20426;-91
2021/11/02 01:02:50;;;;;;;2.30;1.73;;;9.90;61.90;;;;;;5052156;28;20564;-91
2021/11/02 01:05:16;;;;;;;1.90;1.70;;;9.90;61.60;;;;;;5052581;28;20423;-92
2021/11/02 01:07:42;;;;;;;1.97;1.50;;;9.90;60.00;;;;;;5053550;28;20505;-92
2021/11/02 01:10:13;;;;;;;1.60;1.50;;;9.90;59.70;;;;;;5053204;28;20188;-93
2021/11/02 01:12:39;;;;;;;4.27;1.40;;;9.90;59.80;;;;;;5052549;28;20515;-92
2021/11/02 01:15:06;;;;;;;5.57;1.63;;;9.90;59.50;;;;;;5052913;28;20851;-92
2021/11/02 01:17:32;;;;;;;2.03;1.83;;;10.00;58.60;;;;;;5052758;28;20839;-92
2021/11/02 01:19:57;;;;;;;4.63;1.83;;;10.00;58.80;;;;;;5055810;28;20439;-92
2021/11/02 01:22:23;;;;;;;6.63;1.80;;;10.00;58.70;;;;;;5054066;28;20205;-92
2021/11/02 01:24:49;;;;;;;3.40;1.60;;;10.00;58.20;;;;;;5052405;28;20629;-91
2021/11/02 01:27:14;;;;;;;2.20;1.50;;;10.00;58.30;;;;;;5051515;28;20275;-92
2021/11/02 01:29:40;;;;;;;10.73;1.90;;;10.00;58.40;;;;;;5052166;28;20197;-91
2021/11/02 01:32:06;;;;;;;2.67;1.60;;;10.00;58.40;;;;;;5052138;28;20195;-91
2021/11/02 01:34:32;;;;;;;4.90;1.50;;;10.00;57.70;;;;;;5051685;28;20183;-92
2021/11/02 01:36:58;;;;;;;4.60;1.60;;;10.00;57.60;;;;;;5052412;28;20427;-92
2021/11/02 01:39:26;;;;;;;4.37;1.63;;;10.00;57.10;;;;;;5052273;28;20238;-92
2021/11/02 01:41:52;;;;;;;2.30;1.90;;;10.00;57.10;;;;;;5051639;28;20459;-91
2021/11/02 01:44:18;;;;;;;1.53;1.43;;;10.00;57.20;;;;;;5051474;28;20601;-92
2021/11/02 01:46:44;;;;;;;1.83;1.33;;;10.00;57.70;;;;;;5052085;28;20449;-92
2021/11/02 01:49:11;;;;;;;2.37;1.80;;;10.00;57.10;;;;;;5051726;28;20455;-92
2021/11/02 01:51:36;;;;;;;1.53;1.10;;;10.00;57.70;;;;;;5035360;28;20462;-92
2021/11/02 01:54:06;;;;;;;3.77;1.77;;;10.00;57.70;;;;;;5052599;28;20420;-92
2021/11/02 01:56:33;;;;;;;1.77;1.60;;;10.00;57.90;;;;;;5052352;28;20238;-92
2021/11/02 01:59:00;;;;;;;1.63;1.53;;;10.00;57.60;;;;;;5052179;28;20419;-93
2021/11/02 02:01:51;;;;;;;2.57;1.80;;;10.10;57.90;;;;;;5052082;28;20815;-93
2021/11/02 02:04:37;;;;;;;1.43;1.30;;;10.10;57.50;;;;;;5052558;28;20407;-92
2021/11/02 02:07:34;;;;;;;4.47;1.70;;;10.10;56.50;;;;;;5051310;28;20916;-91
2021/11/02 02:10:09;;;;;;;1.80;1.47;;;10.00;56.90;;;;;;5052328;28;20998;-92
2021/11/02 02:13:10;;;;;;;2.30;1.50;;;10.00;56.20;;;;;;5035670;28;20407;-92
2021/11/02 02:15:51;;;;;;;1.30;1.20;;;10.00;56.30;;;;;;5051800;28;20414;-93
2021/11/02 02:18:34;;;;;;;2.77;2.00;;;10.00;57.10;;;;;;5036539;28;20506;-94
2021/11/02 02:21:17;;;;;;;2.20;1.60;;;9.90;57.70;;;;;;5052329;28;20439;-94
2021/11/02 02:24:10;;;;;;;3.60;1.30;;;9.90;57.00;;;;;;5053024;28;20436;-94
2021/11/02 02:26:45;;;;;;;4.97;1.93;;;9.80;58.20;;;;;;5037402;28;20423;-94
2021/11/02 02:29:12;;;;;;;1.20;1.10;;;9.90;58.60;;;;;;5036490;28;20419;-94
2021/11/02 02:31:42;;;;;;;5.77;1.43;;;9.90;58.20;;;;;;5053209;28;20420;-94
2021/11/02 02:34:13;;;;;;;1.60;1.10;;;9.90;58.50;;;;;;5054317;28;20423;-94
2021/11/02 02:36:40;;;;;;;2.00;1.53;;;9.80;57.90;;;;;;5056684;28;20927;-95
2021/11/02 02:39:10;;;;;;;2.30;1.30;;;9.80;58.80;;;;;;5065943;28;20517;-93
2021/11/02 02:41:39;;;;;;;2.03;1.27;;;9.80;58.80;;;;;;5057784;28;20458;-92
2021/11/02 02:44:07;;;;;;;1.93;1.20;;;9.80;59.20;;;;;;5051577;28;20427;-92
2021/11/02 02:46:34;;;;;;;1.40;1.13;;;9.70;59.30;;;;;;5051888;28;20426;-93
2021/11/02 02:49:01;;;;;;;1.57;1.47;;;9.70;59.50;;;;;;5051804;28;20458;-92
2021/11/02 02:51:27;;;;;;;1.60;1.50;;;9.60;59.70;;;;;;5051894;28;20447;-92
2021/11/02 02:53:55;;;;;;;2.80;1.27;;;9.60;60.20;;;;;;5051962;28;20415;-91
2021/11/02 02:56:22;;;;;;;4.80;1.30;;;9.60;60.20;;;;;;5051602;28;20451;-91
2021/11/02 02:58:52;;;;;;;1.50;1.40;;;9.50;60.00;;;;;;5051716;28;20437;-92
2021/11/02 03:01:19;;;;;;;1.60;1.20;;;9.50;60.80;;;;;;5052739;28;20411;-91
2021/11/02 03:03:56;;;;;;;2.23;1.50;;;9.40;60.80;;;;;;5055370;28;20419;-91
2021/11/02 03:06:25;;;;;;;1.30;1.20;;;9.30;61.40;;;;;;5055294;28;20415;-92
2021/11/02 03:08:53;;;;;;;1.37;1.20;;;9.40;61.50;;;;;;5043489;28;20419;-94
2021/11/02 03:11:20;;;;;;;1.63;1.30;;;9.40;62.00;;;;;;5054055;28;20484;-89
2021/11/02 03:13:49;;;;;;;1.53;1.40;;;9.30;61.50;;;;;;5034009;28;20514;-90
2021/11/02 03:16:32;;;;;;;2.30;1.43;;;9.30;61.30;;;;;;5039021;28;20427;-89
2021/11/02 03:52:14;;;;;;;3.73;1.80;;;9.10;61.90;;;;;;5039024;28;20818;-91
2021/11/02 04:23:23;;;;;;;2.30;1.53;;;9.00;61.10;;;;;;5038537;28;20446;-92
2021/11/02 04:31:07;;;;;;;2.00;1.70;;;8.90;61.40;;;;;;5038534;28;20415;-91
2021/11/02 05:57:21;;;;;;;2.60;2.40;;;8.00;65.30;;;;;;5034892;28;20165;-90
2021/11/02 05:59:53;;;;;;;2.30;2.20;;;7.90;65.20;;;;;;5033813;28;20427;-90
2021/11/02 06:08:18;;;;;;;2.50;2.30;;;7.90;65.80;;;;;;5036517;28;20388;-91
2021/11/02 06:28:33;;;;;;;2.23;1.97;;;7.90;65.20;;;;;;5036767;28;20395;-93
2021/11/02 06:31:08;;;;;;;8.13;1.90;;;7.80;65.20;;;;;;5035848;28;20411;-92
2021/11/02 06:34:04;;;;;;;2.10;1.80;;;7.90;65.20;;;;;;5035448;28;20410;-93
2021/11/02 06:44:46;;;;;;;3.10;2.50;;;8.10;64.10;;;;;;5036134;28;20391;-92
2021/11/02 06:47:52;;;;;;;2.60;2.40;;;8.10;63.70;;;;;;5035402;28;20473;-93
2021/11/02 06:56:33;;;;;;;2.37;2.13;;;8.00;64.40;;;;;;5032838;28;20425;-88
2021/11/02 07:15:47;;;;;;;2.43;2.27;;;8.10;64.70;;;;;;5034570;28;20938;-91
2021/11/02 07:23:39;;;;;;;3.10;2.50;;;8.40;63.50;;;;;;5035440;28;20520;-92
2021/11/02 07:26:22;;;;;;;3.37;2.40;;;8.50;62.80;;;;;;5034187;28;20468;-91
2021/11/02 08:46:38;;;;;;;1.53;1.43;;;10.20;54.70;;;;;;5040155;28;20395;-96
2021/11/02 08:49:05;;;;;;;1.83;1.73;;;10.20;55.70;;;;;;5037721;28;20418;-92
2021/11/02 08:51:33;;;;;;;2.90;2.13;;;10.20;57.80;;;;;;5039703;28;20412;-91
2021/11/02 08:53:58;;;;;;;1.67;1.57;;;10.20;55.70;;;;;;5041752;28;20411;-93
2021/11/02 08:56:24;;;;;;;1.90;1.70;;;10.20;56.60;;;;;;5035790;28;20465;-90
2021/11/02 08:58:54;;;;;;;4.40;2.37;;;10.20;57.60;;;;;;5034850;28;20272;-88
2021/11/02 09:01:23;;;;;;;2.80;2.53;;;10.20;57.30;;;;;;5036095;28;20199;-87
2021/11/02 09:04:29;;;;;;;4.80;2.00;;;10.20;58.00;;;;;;5036018;28;20852;-90
2021/11/02 09:10:46;;;;;;;1.83;1.73;;;10.10;57.80;;;;;;5000566;28;20443;-90
2021/11/02 09:13:14;;;;;;;3.40;2.10;;;10.20;58.80;;;;;;5033264;28;20424;-91
2021/11/02 09:15:47;;;;;;;2.57;1.33;;;10.20;58.60;;;;;;5035787;28;20443;-92
2021/11/02 09:18:29;;;;;;;3.97;1.67;;;10.20;56.90;;;;;;5036697;28;20514;-91
2021/11/02 09:21:16;;;;;;;2.60;1.50;;;10.20;58.60;;;;;;5034204;28;20453;-91
2021/11/02 09:24:24;;;;;;;3.23;1.50;;;10.20;61.10;;;;;;5030636;28;20481;-91
2021/11/02 09:26:49;;;;;;;8.40;2.70;;;10.10;59.90;;;;;;5034383;28;20781;-90
2021/11/02 09:29:16;;;;;;;6.80;1.30;;;10.10;62.50;;;;;;5033992;28;20423;-90
2021/11/02 09:31:42;;;;;;;1.40;1.23;;;10.10;62.30;;;;;;5028088;28;20169;-91
2021/11/02 09:34:08;;;;;;;4.00;1.63;;;10.00;62.90;;;;;;5034267;28;20452;-91
2021/11/02 09:36:45;;;;;;;1.80;1.60;;;10.00;63.90;;;;;;5032107;28;20407;-91
2021/11/02 09:39:12;;;;;;;4.07;1.27;;;9.80;65.50;;;;;;5032490;28;20177;-90
2021/11/02 09:41:56;;;;;;;4.53;1.90;;;9.70;66.10;;;;;;5032997;28;20970;-91
2021/11/02 09:44:45;;;;;;;1.40;1.30;;;9.80;67.50;;;;;;5031481;28;20418;-91
2021/11/02 09:47:41;;;;;;;2.30;1.10;;;9.80;67.70;;;;;;5030817;28;20424;-91
2021/11/02 09:51:04;;;;;;;1.40;1.30;;;9.70;65.40;;;;;;5027510;28;20433;-90
2021/11/02 09:53:49;;;;;;;5.93;2.00;;;9.70;67.60;;;;;;5014402;28;20432;-92
2021/11/02 09:56:31;;;;;;;2.00;1.80;;;9.70;67.20;;;;;;5030725;28;20454;-91
2021/11/02 09:59:09;;;;;;;3.53;2.07;;;9.80;68.70;;;;;;5029176;28;20446;-89
2021/11/02 10:01:48;;;;;;;1.97;1.30;;;9.80;67.20;;;;;;5033793;28;20458;-89
2021/11/02 10:04:34;;;;;;;6.50;1.60;;;9.80;67.40;;;;;;5048768;28;20407;-91
2021/11/02 10:07:26;;;;;;;4.10;2.00;;;9.90;70.00;;;;;;5034123;28;20411;-91
2021/11/02 10:10:07;;;;;;;3.00;1.60;;;9.80;67.90;;;;;;5032474;28;20415;-91
2021/11/02 10:12:54;;;;;;;12.30;2.90;;;9.80;65.90;;;;;;5024191;28;20774;-90
2021/11/02 10:15:43;;;;;;;2.63;1.53;;;9.80;66.30;;;;;;5032644;28;20502;-91
2021/11/02 10:18:37;;;;;;;3.33;1.90;;;9.70;65.20;;;;;;5037561;28;20773;-90
2021/11/02 10:21:26;;;;;;;3.90;1.50;;;9.70;66.20;;;;;;5033455;28;20434;-89
2021/11/02 10:23:57;;;;;;;2.40;1.60;;;9.60;67.60;;;;;;5031974;28;20411;-91
2021/11/02 10:26:38;;;;;;;3.60;1.90;;;9.60;66.40;;;;;;5032341;28;20434;-86
2021/11/02 10:29:28;;;;;;;5.13;1.40;;;9.50;65.50;;;;;;5031962;28;20714;-90
2021/11/02 10:32:16;;;;;;;2.17;1.97;;;9.40;66.90;;;;;;5031582;28;20935;-89
2021/11/02 10:34:42;;;;;;;4.63;2.03;;;9.50;66.70;;;;;;5028207;28;20403;-88
2021/11/02 10:37:16;;;;;;;2.37;1.50;;;9.50;68.90;;;;;;5031975;28;20407;-90
2021/11/02 10:39:55;;;;;;;2.70;2.20;;;9.50;68.00;;;;;;5031857;28;20183;-89
2021/11/02 10:42:35;;;;;;;2.37;1.90;;;9.50;69.50;;;;;;5031414;28;20471;-89
2021/11/02 10:45:01;;;;;;;1.70;1.60;;;9.50;69.90;;;;;;5032151;28;20952;-89
2021/11/02 10:48:03;;;;;;;1.77;1.67;;;9.50;70.50;;;;;;5031855;28;20412;-90
2021/11/02 10:50:30;;;;;;;3.10;1.83;;;9.50;68.90;;;;;;5032018;28;20263;-89
2021/11/02 10:53:02;;;;;;;2.30;1.80;;;9.50;69.40;;;;;;5032694;28;20505;-89
2021/11/02 10:55:39;;;;;;;4.93;1.80;;;9.50;70.80;;;;;;5034047;28;20419;-89
2021/11/02 10:58:23;;;;;;;2.03;1.83;;;9.40;69.80;;;;;;5032482;28;20419;-89
2021/11/02 11:00:50;;;;;;;2.63;2.33;;;9.50;70.20;;;;;;5033998;28;20446;-89
2021/11/02 11:03:28;;;;;;;1.60;1.50;;;9.50;70.80;;;;;;5033307;28;20550;-90
2021/11/02 11:05:59;;;;;;;4.30;2.37;;;9.50;69.00;;;;;;5032233;28;20419;-89
2021/11/02 11:08:32;;;;;;;2.30;1.70;;;9.60;70.60;;;;;;5032121;28;20415;-89
2021/11/02 11:10:59;;;;;;;3.63;1.70;;;9.50;66.60;;;;;;5031501;28;20419;-90
2021/11/02 11:13:28;;;;;;;1.70;1.60;;;9.60;69.10;;;;;;5048116;28;20431;-90
2021/11/02 11:16:16;;;;;;;2.90;1.93;;;9.60;68.30;;;;;;5031532;28;20419;-89
2021/11/02 11:19:02;;;;;;;2.27;1.83;;;9.60;68.10;;;;;;5024489;28;20420;-90
2021/11/02 11:21:33;;;;;;;2.80;2.23;;;9.60;69.40;;;;;;5031429;28;20470;-89
2021/11/02 11:24:07;;;;;;;2.80;2.10;;;9.70;69.80;;;;;;5035995;28;20416;-90
2021/11/02 11:26:34;;;;;;;2.13;1.70;;;9.70;68.20;;;;;;5035433;28;20415;-89
2021/11/02 11:29:04;;;;;;;2.30;2.10;;;9.80;68.30;;;;;;5035375;28;20410;-90
2021/11/02 11:31:31;;;;;;;4.60;2.37;;;9.90;69.60;;;;;;5035401;28;20411;-90
2021/11/02 11:34:01;;;;;;;2.40;2.03;;;9.90;67.50;;;;;;5036570;28;20896;-89
2021/11/02 11:36:28;;;;;;;4.43;1.83;;;9.90;68.10;;;;;;5038815;28;20423;-89
2021/11/02 11:38:59;;;;;;;3.57;2.07;;;10.00;66.50;;;;;;5041970;28;20415;-90
2021/11/02 11:41:32;;;;;;;3.30;1.90;;;10.10;66.30;;;;;;5040938;28;20427;-90
2021/11/02 11:44:01;;;;;;;2.53;2.33;;;10.10;66.20;;;;;;5038390;28;20491;-89
2021/11/02 11:46:28;;;;;;;3.60;2.10;;;10.20;65.70;;;;;;5038081;28;20406;-89
2021/11/02 11:48:56;;;;;;;4.83;1.80;;;10.30;67.20;;;;;;5036076;28;20422;-90
2021/11/02 11:51:27;;;;;;;2.17;1.97;;;10.30;65.90;;;;;;5035165;28;20408;-90
2021/11/02 11:53:58;;;;;;;2.33;1.70;;;10.50;66.60;;;;;;5036436;28;20430;-90
2021/11/02 11:56:37;;;;;;;2.17;2.00;;;10.50;64.00;;;;;;5035103;28;20423;-89
2021/11/02 11:59:04;;;;;;;3.03;1.80;;;10.60;64.30;;;;;;5034874;28;20415;-89
2021/11/02 12:01:57;;;;;;;1.50;1.40;;;10.70;62.80;;;;;;5034825;28;20412;-90
2021/11/02 12:04:37;;;;;;;1.17;1.13;;;10.70;60.80;;;;;;5037425;28;20407;-89
2021/11/02 12:07:33;;;;;;;2.30;1.40;;;10.80;58.70;;;;;;5036291;28;20949;-90
2021/11/02 12:10:09;;;;;;;1.40;1.30;;;10.90;62.90;;;;;;5044644;28;20430;-90
2021/11/02 12:12:36;;;;;;;1.30;0.90;;;11.00;62.00;;;;;;5027488;28;20494;-90
2021/11/02 12:15:08;;;;;;;4.20;3.80;;;10.80;57.70;;;;;;5034975;28;20419;-90
2021/11/02 12:17:39;;;;;;;2.27;0.90;;;10.80;59.30;;;;;;5015465;28;20420;-90
2021/11/02 12:20:11;;;;;;;1.07;0.90;;;10.80;59.70;;;;;;5048350;28;20447;-88
2021/11/02 12:22:46;;;;;;;2.30;1.20;;;10.80;61.80;;;;;;5034518;28;20436;-89
2021/11/02 12:25:26;;;;;;;1.00;0.90;;;10.70;60.00;;;;;;5032203;28;20276;-89
2021/11/02 12:27:53;;;;;;;1.87;1.17;;;10.60;61.80;;;;;;5034907;28;20423;-90
2021/11/02 12:30:21;;;;;;;1.27;1.00;;;10.60;63.00;;;;;;5035907;28;20420;-89
2021/11/02 12:32:52;;;;;;;2.27;1.50;;;10.60;63.80;;;;;;5037195;28;20415;-90
2021/11/02 12:35:36;;;;;;;1.73;1.63;;;10.60;64.70;;;;;;5034298;28;20411;-89
2021/11/02 12:38:12;;;;;;;2.10;1.00;;;10.60;64.40;;;;;;5035810;28;20919;-90
2021/11/02 12:40:40;;;;;;;0.90;0.90;;;10.60;63.30;;;;;;5035202;28;20419;-89
2021/11/02 12:43:28;;;;;;;0.93;0.90;;;10.70;64.70;;;;;;5034541;28;20447;-89
2021/11/02 12:45:58;;;;;;;2.03;0.90;;;10.60;63.80;;;;;;5034854;28;20815;-89
2021/11/02 12:48:24;;;;;;;1.30;0.70;;;10.60;61.60;;;;;;5035345;28;20469;-85
2021/11/02 12:50:55;;;;;;;1.30;0.80;;;10.70;61.70;;;;;;5036523;28;20426;-88
2021/11/02 12:53:21;;;;;;;0.90;0.90;;;10.70;61.70;;;;;;5036110;28;20421;-88
2021/11/02 12:55:47;;;;;;;2.77;0.70;;;10.70;60.90;;;;;;5034107;28;20772;-89
2021/11/02 12:58:15;;;;;;;0.80;0.80;;;10.80;62.20;;;;;;5034314;28;20418;-88
2021/11/02 13:00:59;;;;;;;1.33;0.97;;;10.70;60.90;;;;;;5034327;28;20924;-87
2021/11/02 13:03:28;;;;;;;1.20;1.10;;;10.80;61.20;;;;;;5034341;28;20524;-88
2021/11/02 13:05:56;;;;;;;1.43;0.70;;;10.80;61.10;;;;;;5034346;28;20408;-88
2021/11/02 13:08:35;;;;;;;1.60;1.50;;;10.80;59.50;;;;;;5033675;28;20514;-88
2021/11/02 13:11:10;;;;;;;1.67;1.00;;;10.90;60.40;;;;;;5034719;28;20436;-88
2021/11/02 13:14:07;;;;;;;0.80;0.80;;;11.00;62.00;;;;;;5035362;28;20423;-90
2021/11/02 13:17:07;;;;;;;0.93;0.83;;;11.00;58.80;;;;;;5040484;28;20431;-92
2021/11/02 13:19:47;;;;;;;0.90;0.77;;;11.00;59.40;;;;;;5055428;28;20431;-89
2021/11/02 13:22:28;;;;;;;0.83;0.80;;;10.90;58.10;;;;;;5054624;28;20449;-90
2021/11/02 13:25:22;;;;;;;0.80;0.67;;;10.90;58.10;;;;;;5055051;28;20461;-88
2021/11/02 13:27:54;;;;;;;1.20;0.87;;;10.90;58.80;;;;;;5054520;28;20440;-89
2021/11/02 13:30:35;;;;;;;1.93;1.70;;;10.80;56.90;;;;;;5054082;28;20441;-89
2021/11/02 13:33:12;;;;;;;1.07;1.03;;;10.80;57.60;;;;;;5054709;28;20424;-89
2021/11/02 13:36:01;;;;;;;1.13;0.80;;;10.80;57.50;;;;;;5054407;28;20421;-88
2021/11/02 13:38:34;;;;;;;0.80;0.80;;;10.80;57.80;;;;;;5055121;28;20418;-91
2021/11/02 13:41:11;;;;;;;1.63;0.70;;;10.80;56.90;;;;;;5053974;28;20475;-91
2021/11/02 13:43:39;;;;;;;1.23;0.87;;;10.70;55.50;;;;;;5055632;28;20458;-89
2021/11/02 13:46:11;;;;;;;1.67;0.87;;;10.70;56.20;;;;;;5044451;28;20439;-85
2021/11/02 13:48:37;;;;;;;1.10;1.00;;;10.70;57.00;;;;;;5033129;28;20415;-85
2021/11/02 13:51:05;;;;;;;1.00;1.00;;;10.70;53.60;;;;;;5032537;28;20438;-85
2021/11/02 13:53:34;;;;;;;0.70;0.70;;;10.70;55.60;;;;;;5032086;28;20514;-85
2021/11/02 13:56:02;;;;;;;1.30;0.90;;;10.80;55.20;;;;;;5031727;28;20443;-86
2021/11/02 13:58:28;;;;;;;2.90;0.70;;;10.70;55.40;;;;;;5031869;28;20427;-85
2021/11/02 14:00:54;;;;;;;0.90;0.80;;;10.70;56.20;;;;;;5031611;28;20877;-85
2021/11/02 14:03:24;;;;;;;0.83;0.83;;;10.70;56.10;;;;;;5032162;28;20524;-85
2021/11/02 14:05:53;;;;;;;0.70;0.70;;;10.70;56.80;;;;;;5031816;28;20180;-86
2021/11/02 14:08:20;;;;;;;0.90;0.90;;;10.70;56.20;;;;;;5031891;28;20411;-84
2021/11/02 14:10:57;;;;;;;0.90;0.90;;;10.70;56.20;;;;;;5031010;28;20431;-84
2021/11/02 14:13:55;;;;;;;1.37;0.90;;;10.80;55.80;;;;;;5030269;28;20927;-85
2021/11/02 14:16:40;;;;;;;1.20;1.00;;;10.80;54.30;;;;;;5039918;28;20447;-85
2021/11/02 14:19:33;;;;;;;0.80;0.80;;;10.90;53.10;;;;;;5032111;28;20446;-85
2021/11/02 14:22:01;;;;;;;0.80;0.80;;;10.90;53.40;;;;;;5043418;28;20462;-84
2021/11/02 14:24:33;;;;;;;0.90;0.90;;;10.90;53.20;;;;;;5032291;28;20459;-85
2021/11/02 14:27:00;;;;;;;0.70;0.50;;;10.80;53.30;;;;;;5031518;28;20438;-85
2021/11/02 14:29:48;;;;;;;1.10;0.90;;;10.90;52.40;;;;;;5032219;28;20418;-85
2021/11/02 14:32:35;;;;;;;0.90;0.90;;;10.90;53.10;;;;;;5032628;28;20427;-85
2021/11/02 14:35:11;;;;;;;1.10;1.00;;;10.90;52.70;;;;;;5031813;28;20426;-85
2021/11/02 14:37:55;;;;;;;0.90;0.90;;;10.90;52.20;;;;;;5032691;28;20407;-84
2021/11/02 14:40:29;;;;;;;0.97;0.80;;;10.90;52.70;;;;;;5031626;28;20419;-85
2021/11/02 14:43:19;;;;;;;0.87;0.70;;;10.80;51.20;;;;;;5032318;28;20457;-85
2021/11/02 14:45:49;;;;;;;1.10;1.00;;;10.80;50.80;;;;;;5031299;28;20431;-84
2021/11/02 14:48:50;;;;;;;1.13;0.90;;;10.80;50.80;;;;;;5030996;28;20431;-85
2021/11/02 14:51:22;;;;;;;1.30;1.10;;;10.80;52.10;;;;;;5028930;28;20494;-85
2021/11/02 14:53:49;;;;;;;1.50;1.07;;;10.80;52.60;;;;;;5047852;28;20788;-85
2021/11/02 14:56:35;;;;;;;1.27;1.10;;;10.80;53.20;;;;;;5047515;28;20898;-86
2021/11/02 14:59:05;;;;;;;1.27;1.03;;;10.80;51.50;;;;;;5047661;28;20447;-86
2021/11/02 15:01:37;;;;;;;3.10;1.00;;;10.70;52.00;;;;;;5031084;28;20994;-86
2021/11/02 15:04:14;;;;;;;1.10;1.00;;;10.70;52.00;;;;;;5030972;28;20423;-86
2021/11/02 15:06:56;;;;;;;1.03;0.60;;;10.70;52.20;;;;;;5031445;28;20419;-86
2021/11/02 15:09:30;;;;;;;1.33;0.80;;;10.70;52.10;;;;;;5031217;28;20498;-85
2021/11/02 15:11:56;;;;;;;0.80;0.80;;;10.60;51.90;;;;;;5031269;28;20820;-85
2021/11/02 15:14:24;;;;;;;2.13;1.63;;;10.60;52.50;;;;;;5031531;28;20417;-85
2021/11/02 15:16:53;;;;;;;2.10;1.90;;;10.60;53.20;;;;;;5030836;28;20271;-86
2021/11/02 15:19:22;;;;;;;3.07;1.20;;;10.60;52.40;;;;;;5031054;28;20435;-85
2021/11/02 15:21:57;;;;;;;1.10;1.00;;;10.50;51.80;;;;;;5031154;28;20510;-86
2021/11/02 15:24:30;;;;;;;1.00;1.00;;;10.50;54.30;;;;;;5030910;28;20419;-85
2021/11/02 15:27:07;;;;;;;3.20;1.23;;;10.50;52.90;;;;;;5031826;28;20411;-81
2021/11/02 15:29:44;;;;;;;2.63;2.40;;;10.40;54.00;;;;;;5030781;28;20410;-86
2021/11/02 15:32:13;;;;;;;3.63;2.97;;;10.30;53.70;;;;;;5030515;28;20787;-85
2021/11/02 15:34:48;;;;;;;1.67;1.57;;;10.30;55.10;;;;;;5030860;28;20408;-86
2021/11/02 15:37:28;;;;;;;0.80;0.80;;;10.30;56.50;;;;;;5030467;28;20411;-86
2021/11/02 15:40:00;;;;;;;1.03;0.93;;;10.20;57.70;;;;;;5032042;28;20494;-86
2021/11/02 15:42:31;;;;;;;0.70;0.70;;;10.10;56.60;;;;;;5030550;28;20824;-86
2021/11/02 15:45:37;;;;;;;1.80;1.00;;;10.10;56.70;;;;;;5030957;28;20961;-86
2021/11/02 15:48:06;;;;;;;0.87;0.87;;;10.00;57.00;;;;;;5029257;28;20458;-86
2021/11/02 15:50:35;;;;;;;1.10;1.00;;;9.90;58.70;;;;;;5030799;28;20754;-85
2021/11/02 15:53:03;;;;;;;1.30;1.00;;;9.90;58.00;;;;;;5030421;28;20420;-86
2021/11/02 15:55:31;;;;;;;1.10;1.10;;;9.80;58.80;;;;;;5030900;28;20422;-86
2021/11/02 15:58:02;;;;;;;1.50;0.90;;;9.80;59.60;;;;;;5029614;28;20510;-86
2021/11/02 16:00:46;;;;;;;5.30;2.80;;;9.80;59.50;;;;;;5030192;28;20934;-86
2021/11/02 16:03:12;;;;;;;1.47;1.00;;;9.70;58.80;;;;;;5030233;28;20815;-86
2021/11/02 16:05:41;;;;;;;2.10;1.07;;;9.80;59.20;;;;;;5031018;28;20776;-86
2021/11/02 16:08:20;;;;;;;1.47;1.37;;;9.80;60.30;;;;;;5031594;28;20411;-86
2021/11/02 16:10:50;;;;;;;1.83;1.73;;;9.70;60.00;;;;;;5034269;28;20421;-86
2021/11/02 16:13:16;;;;;;;1.77;1.67;;;9.70;60.40;;;;;;5034275;28;20423;-86
2021/11/02 16:15:43;;;;;;;2.20;1.50;;;9.60;59.70;;;;;;5033944;28;20411;-86
2021/11/02 16:18:18;;;;;;;1.17;1.00;;;9.60;59.70;;;;;;5034029;28;20181;-86
2021/11/02 16:20:45;;;;;;;1.20;1.10;;;9.60;58.70;;;;;;5033345;28;20427;-86
2021/11/02 16:23:15;;;;;;;1.53;1.40;;;9.60;59.40;;;;;;5032191;28;21114;-86
2021/11/02 16:25:44;;;;;;;1.83;1.47;;;9.60;60.20;;;;;;5034146;28;20468;-86
2021/11/02 16:28:22;;;;;;;1.07;0.97;;;9.70;60.30;;;;;;5033887;28;20972;-88
2021/11/02 16:30:54;;;;;;;1.60;1.50;;;9.70;60.30;;;;;;5033749;28;20435;-88
2021/11/02 16:33:35;;;;;;;1.53;1.10;;;9.80;61.10;;;;;;5032697;28;20593;-87
2021/11/02 16:36:29;;;;;;;1.30;1.20;;;9.70;60.40;;;;;;5033520;28;20696;-87
2021/11/02 16:38:56;;;;;;;3.93;1.33;;;9.70;58.80;;;;;;5033782;28;20415;-85
2021/11/02 16:41:26;;;;;;;1.30;1.20;;;9.70;59.80;;;;;;5033162;28;20428;-86
2021/11/02 16:44:01;;;;;;;1.60;1.50;;;9.70;61.20;;;;;;5033650;28;20460;-86
2021/11/02 16:46:38;;;;;;;2.20;1.37;;;9.80;61.80;;;;;;5033186;28;20493;-86
2021/11/02 16:49:13;;;;;;;3.17;1.83;;;9.70;63.00;;;;;;5033909;28;20503;-86
2021/11/02 16:51:44;;;;;;;1.47;1.37;;;9.70;64.50;;;;;;5033155;28;20411;-85
2021/11/02 16:54:12;;;;;;;2.00;1.17;;;9.60;65.30;;;;;;5033323;28;20849;-85
2021/11/02 16:57:22;;;;;;;1.97;1.53;;;9.50;64.70;;;;;;5033468;28;20426;-85
2021/11/02 16:59:57;;;;;;;1.87;1.77;;;9.50;65.20;;;;;;5034113;28;20419;-85
2021/11/02 17:02:46;;;;;;;1.57;1.47;;;9.40;65.40;;;;;;5033267;28;20557;-88
2021/11/02 17:05:20;;;;;;;1.47;1.37;;;9.40;67.30;;;;;;5034763;28;20452;-86
2021/11/02 17:07:53;;;;;;;1.33;1.23;;;9.30;67.80;;;;;;5034377;28;20965;-86
2021/11/02 17:10:22;;;;;;;2.23;1.80;;;9.30;68.40;;;;;;5037625;28;20411;-87
2021/11/02 17:12:50;;;;;;;2.40;1.63;;;9.30;68.60;;;;;;5032871;28;20410;-87
2021/11/02 17:15:45;;;;;;;1.47;1.37;;;9.40;68.90;;;;;;5034412;28;20419;-86
2021/11/02 17:18:18;;;;;;;2.03;1.20;;;9.30;67.40;;;;;;5032447;28;20446;-87
2021/11/02 17:21:06;;;;;;;2.17;1.27;;;9.30;68.20;;;;;;5032378;28;20443;-87
2021/11/02 17:23:34;;;;;;;2.23;1.30;;;9.20;67.90;;;;;;5032853;28;20469;-87
2021/11/02 17:26:00;;;;;;;1.77;1.63;;;9.30;68.20;;;;;;5032898;28;20415;-87
2021/11/02 17:28:26;;;;;;;2.20;2.10;;;9.10;67.30;;;;;;5032311;28;20439;-87
2021/11/02 17:30:52;;;;;;;2.30;2.10;;;9.10;67.60;;;;;;5032155;28;20498;-88
2021/11/02 17:33:19;;;;;;;3.00;2.40;;;9.10;67.50;;;;;;5032723;28;20523;-86
2021/11/02 17:35:46;;;;;;;3.53;3.03;;;9.00;67.40;;;;;;5032252;28;20415;-86
2021/11/02 17:38:14;;;;;;;2.73;2.53;;;9.00;68.50;;;;;;5032193;28;20422;-87
2021/11/02 17:40:40;;;;;;;5.93;2.87;;;8.90;69.40;;;;;;5031934;28;20411;-87
2021/11/02 17:43:07;;;;;;;9.57;6.87;;;8.90;69.10;;;;;;5032166;28;20487;-87
2021/11/02 17:45:35;;;;;;;3.03;2.80;;;8.90;69.80;;;;;;5031965;28;20407;-86
2021/11/02 17:48:06;;;;;;;3.30;3.00;;;8.90;69.20;;;;;;5034674;28;20445;-92
2021/11/02 17:50:34;;;;;;;3.53;2.83;;;8.80;68.80;;;;;;5033286;28;20425;-86
2021/11/02 17:53:00;;;;;;;2.97;2.47;;;8.80;68.40;;;;;;5032166;28;20421;-85
2021/11/02 17:55:26;;;;;;;2.80;2.60;;;8.70;68.90;;;;;;5031698;28;20407;-85
2021/11/02 17:57:54;;;;;;;5.37;3.03;;;8.70;69.00;;;;;;5032034;28;20418;-87
2021/11/02 18:00:23;;;;;;;2.63;2.43;;;8.70;69.00;;;;;;5035275;28;20415;-88
2021/11/02 18:02:51;;;;;;;2.60;2.40;;;8.70;69.70;;;;;;5033288;28;20466;-92
2021/11/02 18:05:17;;;;;;;3.33;2.67;;;8.60;70.90;;;;;;5034154;28;20400;-89
2021/11/02 18:07:44;;;;;;;3.33;2.70;;;8.60;70.90;;;;;;5034008;28;20407;-87
2021/11/02 18:10:11;;;;;;;2.90;2.70;;;8.60;70.90;;;;;;5033711;28;20485;-91
2021/11/02 18:12:38;;;;;;;2.67;2.47;;;8.70;70.50;;;;;;5045483;28;20411;-90
2021/11/02 18:15:06;;;;;;;4.40;3.40;;;8.70;72.20;;;;;;5032395;28;20476;-88
2021/11/02 18:17:44;;;;;;;4.17;3.77;;;8.70;71.80;;;;;;5032021;28;20451;-88
2021/11/02 18:20:11;;;;;;;4.93;4.43;;;8.70;71.10;;;;;;5031776;28;20450;-90